Remember me Username/Password Help

Save Customer ID
Click Me

Stats Center

NFL | NCAAF | NBA | NCAAB | WNBA | NHL | MLB | CFL | NASCAR | F1
GAME LOGS: 2014 | 2013 | 2012 | 2011
Central Florida Knights
SELECT ANOTHER TEAM
DATEOPPONENTSCORE
ATS
OU
RECAP
11/08/2013vs TampaW 97 - 72Recap
11/13/2013vs Florida StateL 80 - 68L (-1)U (148½)Recap
11/17/2013vs Bethune-CookmanW 83 - 63Recap
11/21/2013at MiamiW 63 - 58W (8)U (141½)Recap
11/26/2013at ValparaisoL 85 - 70L (4½)O (148½)Recap
12/03/2013at Florida AtlanticL 75 - 64L (-7)U (140)Recap
12/07/2013vs StetsonW 77 - 58Recap
12/11/2013vs HowardW 79 - 64Recap
12/17/2013vs JacksonvilleW 104 - 64Recap
12/21/2013vs Rio GrandeW 86 - 58Recap
12/22/2013vs ValparaisoW 90 - 62W (-3)O (149½)Recap
12/31/2013vs LouisvilleL 90 - 65L (12½)O (146½)Recap
01/04/2014vs TempleW 78 - 76L (-4)O (147½)Recap
01/11/2014at ConnecticutL 84 - 61L (11)O (139½)Recap
01/15/2014at RutgersL 85 - 75L (4)O (148½)Recap
01/18/2014vs Southern MethodisL 58 - 46L (5)U (140)Recap
01/23/2014at CincinnatiL 69 - 51L (14)U (128½)Recap
01/29/2014vs MemphisL 69 - 59L (7)U (150)Recap
02/01/2014at LouisvilleL 87 - 70W (19½)O (141½)Recap
02/05/2014vs South FloridaL 79 - 78L (-5½)O (134½)Recap
02/09/2014vs ConnecticutL 75 - 55L (6½)U (140)Recap
02/12/2014at MemphisL 76 - 70W (13½)O (145½)Recap
02/15/2014at South FloridaW 75 - 74W (1½)O (136)Recap
02/19/2014vs CincinnatiL 77 - 49L (7)U (130½)Recap
02/22/2014at HoustonL 88 - 84W (4½)O (144)Recap
02/26/2014vs RutgersW 67 - 65L (-4½)U (146½)Recap
03/01/2014at Southern MethodisL 70 - 55L (14½)U (138)Recap
03/04/2014at TempleL 86 - 78L (3½)O (147)Recap
03/07/2014vs HoustonW 104 - 83W (-3½)O (146)Recap
03/12/2014at TempleW 94 - 90W (-1)O (148)Recap
03/13/2014at CincinnatiL 61 - 58W (12)U (130)Recap

↑ Back to page content
credit card deposit

SAFE & SECURE

At BetOnline, our company's guiding principle is to establish long-lasting, positive relationships with our customers and within the online gaming community. We believe this goal is

Learn More

About Us | Contact Us | Terms & Conditions | Privacy Policy | Site Map

↑ Back to top